Time;durP1;ratioP1;P1;durP2;ratioP2;P2;SDS_P1;SDS_P2;PMS_P1;PMS_P2;Temp;Humidity;BMP_temperature;BMP_pressure;BME280_temperature;BME280_humidity;BME280_pressure;Samples;Min_cycle;Max_cycle;Signal;HPM_P1;HPM_P2
2023/04/12 05:01:44;;;;;;;;;0.00;0.00;;;;;;;;5347736;22;46083;-58
2023/04/12 05:04:11;;;;;;;;;0.67;0.67;;;;;;;;4983842;28;45489;-57
2023/04/12 05:06:36;;;;;;;;;1.00;1.00;;;;;;;;4987904;28;45494;-57
2023/04/12 05:09:02;;;;;;;;;1.00;1.00;;;;;;;;5000499;28;45416;-57
2023/04/12 05:11:27;;;;;;;;;0.00;0.00;;;;;;;;5003569;28;45380;-58
2023/04/12 05:13:52;;;;;;;;;0.33;0.33;;;;;;;;4978871;28;45435;-57
2023/04/12 05:16:17;;;;;;;;;0.00;0.00;;;;;;;;5005266;28;46628;-56
2023/04/12 05:18:43;;;;;;;;;1.00;1.00;;;;;;;;5007391;28;46657;-57
2023/04/12 05:21:08;;;;;;;;;0.67;0.67;;;;;;;;4993472;28;45466;-57
2023/04/12 05:23:40;;;;;;;;;0.00;0.00;;;;;;;;4999992;28;45503;-57
2023/04/12 05:26:05;;;;;;;;;0.00;0.00;;;;;;;;4991797;28;45515;-57
2023/04/12 05:28:30;;;;;;;;;1.00;0.00;;;;;;;;4989522;28;45527;-57
2023/04/12 05:30:56;;;;;;;;;0.00;0.00;;;;;;;;4996583;28;45301;-59
2023/04/12 05:33:21;;;;;;;;;0.00;0.00;;;;;;;;4991978;28;45362;-57
2023/04/12 05:35:46;;;;;;;;;0.67;0.67;;;;;;;;4992506;28;45560;-58
2023/04/12 05:38:11;;;;;;;;;0.33;0.00;;;;;;;;4988931;28;46961;-58
2023/04/12 05:40:37;;;;;;;;;0.00;0.00;;;;;;;;4981009;28;45884;-58
2023/04/12 05:43:02;;;;;;;;;1.33;0.00;;;;;;;;4996404;28;45328;-58
2023/04/12 05:45:28;;;;;;;;;1.00;1.00;;;;;;;;4998694;28;45537;-58
2023/04/12 05:47:54;;;;;;;;;1.33;0.00;;;;;;;;4987982;28;47537;-58
2023/04/12 05:50:19;;;;;;;;;1.00;0.00;;;;;;;;5004573;28;45459;-58
2023/04/12 05:52:45;;;;;;;;;2.00;1.00;;;;;;;;5002934;28;45336;-57
2023/04/12 05:55:10;;;;;;;;;1.00;1.00;;;;;;;;5003991;28;45300;-57
2023/04/12 05:57:35;;;;;;;;;1.00;1.00;;;;;;;;5003195;28;45681;-58
2023/04/12 06:00:00;;;;;;;;;3.67;1.00;;;;;;;;5004649;28;45368;-58
2023/04/12 06:02:26;;;;;;;;;1.00;1.00;;;;;;;;5005757;28;45296;-58
2023/04/12 06:04:52;;;;;;;;;1.00;1.00;;;;;;;;4988362;28;45534;-58
2023/04/12 06:07:18;;;;;;;;;2.33;2.33;;;;;;;;5005533;28;45470;-58
2023/04/12 06:09:43;;;;;;;;;0.00;0.00;;;;;;;;4993579;28;45475;-58
2023/04/12 06:12:08;;;;;;;;;2.00;2.00;;;;;;;;4983496;28;45420;-60
2023/04/12 06:14:33;;;;;;;;;2.00;2.00;;;;;;;;5001247;28;45615;-59
2023/04/12 06:16:59;;;;;;;;;1.00;1.00;;;;;;;;4982958;28;46810;-60
2023/04/12 06:19:24;;;;;;;;;2.00;2.00;;;;;;;;5001106;28;45286;-60
2023/04/12 06:21:50;;;;;;;;;5.00;4.00;;;;;;;;5001271;28;45500;-60
2023/04/12 06:24:15;;;;;;;;;3.00;3.00;;;;;;;;4982691;28;45431;-60
2023/04/12 06:26:42;;;;;;;;;3.00;2.00;;;;;;;;5000879;28;46202;-63
2023/04/12 06:29:07;;;;;;;;;2.00;2.00;;;;;;;;4994081;28;45298;-60
2023/04/12 06:31:32;;;;;;;;;2.67;1.00;;;;;;;;4988666;28;45714;-61
2023/04/12 06:33:57;;;;;;;;;7.33;5.00;;;;;;;;4998743;28;45511;-61
2023/04/12 06:36:22;;;;;;;;;6.33;4.00;;;;;;;;5000040;28;45513;-61
2023/04/12 06:38:50;;;;;;;;;4.00;4.00;;;;;;;;4993798;28;45431;-66
2023/04/12 06:41:15;;;;;;;;;4.00;4.00;;;;;;;;5000359;28;45462;-60
2023/04/12 06:43:40;;;;;;;;;2.67;2.67;;;;;;;;4989122;28;45372;-62
2023/04/12 06:46:07;;;;;;;;;5.67;4.33;;;;;;;;4975403;28;46549;-60
2023/04/12 06:48:32;;;;;;;;;3.00;2.00;;;;;;;;4981441;28;47261;-59
2023/04/12 06:50:58;;;;;;;;;4.00;4.00;;;;;;;;5008929;28;45301;-60
2023/04/12 06:53:23;;;;;;;;;7.33;4.33;;;;;;;;4982893;28;45509;-60
2023/04/12 06:55:48;;;;;;;;;1.00;1.00;;;;;;;;4977880;28;47314;-63
2023/04/12 06:58:13;;;;;;;;;2.33;2.33;;;;;;;;4991938;28;45277;-60
2023/04/12 07:00:39;;;;;;;;;3.00;1.67;;;;;;;;5000065;28;45194;-61
2023/04/12 07:03:04;;;;;;;;;1.00;1.00;;;;;;;;4993870;28;45615;-63
2023/04/12 07:05:29;;;;;;;;;1.00;1.00;;;;;;;;4993013;28;46273;-60
2023/04/12 07:07:54;;;;;;;;;2.67;2.00;;;;;;;;4998622;28;45428;-60
2023/04/12 07:10:19;;;;;;;;;1.33;1.33;;;;;;;;4999165;28;45380;-61
2023/04/12 07:12:45;;;;;;;;;3.00;3.00;;;;;;;;4993731;28;45483;-61
2023/04/12 07:15:10;;;;;;;;;2.00;2.00;;;;;;;;4994217;28;45511;-61
2023/04/12 07:17:36;;;;;;;;;3.00;1.67;;;;;;;;4991426;28;45353;-61
2023/04/12 07:20:01;;;;;;;;;3.00;1.33;;;;;;;;4997178;28;45482;-61
2023/04/12 07:22:26;;;;;;;;;4.00;2.67;;;;;;;;4978255;28;45416;-61
2023/04/12 07:24:51;;;;;;;;;1.67;1.67;;;;;;;;4992719;28;46306;-61
2023/04/12 07:27:16;;;;;;;;;4.33;2.00;;;;;;;;4989556;28;45411;-61
2023/04/12 07:29:42;;;;;;;;;4.00;2.00;;;;;;;;4999508;28;45412;-60
2023/04/12 07:32:07;;;;;;;;;3.00;1.33;;;;;;;;4994914;28;45543;-60
2023/04/12 07:34:33;;;;;;;;;1.00;1.00;;;;;;;;4996816;28;46203;-61
2023/04/12 07:36:59;;;;;;;;;1.00;1.00;;;;;;;;4990168;28;45448;-61
2023/04/12 07:39:25;;;;;;;;;2.00;2.00;;;;;;;;4997065;28;45364;-58
2023/04/12 07:41:50;;;;;;;;;1.33;1.33;;;;;;;;4999450;28;45292;-61
2023/04/12 07:44:15;;;;;;;;;1.00;1.00;;;;;;;;4994227;28;46901;-61
2023/04/12 07:46:41;;;;;;;;;4.00;0.67;;;;;;;;4994679;28;45328;-61
2023/04/12 07:49:06;;;;;;;;;1.00;1.00;;;;;;;;4997877;28;45782;-61
2023/04/12 07:51:32;;;;;;;;;1.67;1.00;;;;;;;;4981475;28;45362;-61
2023/04/12 07:53:57;;;;;;;;;1.00;1.00;;;;;;;;4997168;28;46407;-60
2023/04/12 07:56:22;;;;;;;;;2.67;1.00;;;;;;;;4991799;28;45333;-60
2023/04/12 07:58:47;;;;;;;;;3.00;1.00;;;;;;;;4997467;28;45427;-61
2023/04/12 08:01:14;;;;;;;;;2.67;1.67;;;;;;;;4993274;28;45399;-60
2023/04/12 08:03:39;;;;;;;;;2.33;2.33;;;;;;;;4995175;28;45630;-60
2023/04/12 08:06:05;;;;;;;;;1.00;1.00;;;;;;;;4990136;28;45333;-60
2023/04/12 08:08:30;;;;;;;;;2.00;2.00;;;;;;;;4991456;28;45506;-59
2023/04/12 08:10:55;;;;;;;;;4.67;2.67;;;;;;;;4997261;28;45415;-60
2023/04/12 08:13:21;;;;;;;;;4.33;1.67;;;;;;;;4996684;28;45355;-60
2023/04/12 08:15:46;;;;;;;;;1.67;1.33;;;;;;;;4999098;28;45353;-60
2023/04/12 08:18:11;;;;;;;;;1.67;1.67;;;;;;;;4997330;28;45781;-60
2023/04/12 08:20:39;;;;;;;;;2.00;1.33;;;;;;;;4998867;28;45495;-60
2023/04/12 08:23:04;;;;;;;;;0.67;0.67;;;;;;;;4992893;28;45778;-61
2023/04/12 08:25:30;;;;;;;;;0.00;0.00;;;;;;;;4998477;28;45398;-60
2023/04/12 08:27:55;;;;;;;;;1.33;0.67;;;;;;;;4981056;28;45492;-60
2023/04/12 08:30:25;;;;;;;;;0.00;0.00;;;;;;;;4997212;28;45846;-60
2023/04/12 08:32:50;;;;;;;;;1.00;0.33;;;;;;;;4986464;28;47196;-61
2023/04/12 08:35:15;;;;;;;;;0.00;0.00;;;;;;;;4992877;28;45717;-61
2023/04/12 08:37:41;;;;;;;;;0.00;0.00;;;;;;;;5002600;28;45297;-60
2023/04/12 08:40:07;;;;;;;;;0.00;0.00;;;;;;;;4996596;28;45289;-61
2023/04/12 08:42:38;;;;;;;;;0.00;0.00;;;;;;;;4999067;28;45463;-61
2023/04/12 08:45:04;;;;;;;;;0.00;0.00;;;;;;;;4996248;28;45250;-60
2023/04/12 08:47:31;;;;;;;;;0.00;0.00;;;;;;;;4973283;28;45465;-59
2023/04/12 08:49:56;;;;;;;;;0.00;0.00;;;;;;;;4995888;28;45359;-61
2023/04/12 08:52:21;;;;;;;;;0.00;0.00;;;;;;;;4997021;28;45355;-60
2023/04/12 08:54:46;;;;;;;;;1.33;0.00;;;;;;;;4997029;28;45835;-61
2023/04/12 08:57:12;;;;;;;;;0.00;0.00;;;;;;;;4998520;28;45762;-60
2023/04/12 08:59:41;;;;;;;;;1.33;0.00;;;;;;;;4998922;28;45666;-60
2023/04/12 09:02:06;;;;;;;;;0.67;0.67;;;;;;;;4998838;28;45861;-61
2023/04/12 09:04:31;;;;;;;;;0.00;0.00;;;;;;;;4993612;28;45464;-61
2023/04/12 09:06:56;;;;;;;;;0.00;0.00;;;;;;;;4994528;28;45535;-60
2023/04/12 09:09:40;;;;;;;;;2.00;0.00;;;;;;;;4975654;28;45555;-60
2023/04/12 09:12:06;;;;;;;;;0.00;0.00;;;;;;;;4980222;28;48184;-60
2023/04/12 09:14:32;;;;;;;;;0.00;0.00;;;;;;;;4994598;28;45337;-60
2023/04/12 09:16:57;;;;;;;;;0.00;0.00;;;;;;;;4997129;28;45449;-60
2023/04/12 09:19:30;;;;;;;;;0.50;0.50;;;;;;;;4997537;28;45467;-60
2023/04/12 09:21:55;;;;;;;;;0.25;0.00;;;;;;;;4992270;28;45703;-60
2023/04/12 09:24:23;;;;;;;;;0.00;0.00;;;;;;;;4983635;28;45330;-63
2023/04/12 09:27:00;;;;;;;;;0.00;0.00;;;;;;;;4998397;28;45561;-62
2023/04/12 09:29:25;;;;;;;;;0.75;0.00;;;;;;;;4992171;28;45351;-63
2023/04/12 09:32:01;;;;;;;;;0.25;0.00;;;;;;;;4997283;28;45396;-62
2023/04/12 09:34:26;;;;;;;;;0.75;0.50;;;;;;;;4998871;28;45352;-62
2023/04/12 09:36:52;;;;;;;;;0.25;0.25;;;;;;;;4996931;28;45274;-62
2023/04/12 09:39:17;;;;;;;;;0.00;0.00;;;;;;;;4999691;28;45310;-64
2023/04/12 09:41:43;;;;;;;;;0.00;0.00;;;;;;;;5003341;28;46788;-62
2023/04/12 09:44:08;;;;;;;;;0.50;0.50;;;;;;;;4999906;28;45393;-63
2023/04/12 09:46:33;;;;;;;;;0.00;0.00;;;;;;;;4997563;28;45833;-62
2023/04/12 09:48:59;;;;;;;;;0.50;0.00;;;;;;;;4999788;28;45594;-63
2023/04/12 09:51:29;;;;;;;;;0.00;0.00;;;;;;;;4995971;28;45995;-62
2023/04/12 09:53:58;;;;;;;;;0.00;0.00;;;;;;;;4977162;28;45530;-63
2023/04/12 09:56:25;;;;;;;;;0.25;0.25;;;;;;;;4992292;28;45883;-63
2023/04/12 09:58:51;;;;;;;;;1.00;1.00;;;;;;;;4971716;28;45505;-63
2023/04/12 10:01:17;;;;;;;;;0.00;0.00;;;;;;;;4995105;28;45593;-63
2023/04/12 10:03:42;;;;;;;;;1.00;1.00;;;;;;;;4978426;28;45410;-63
2023/04/12 10:06:07;;;;;;;;;1.25;0.25;;;;;;;;4966478;28;45705;-62
2023/04/12 10:08:33;;;;;;;;;0.75;0.75;;;;;;;;4977024;28;45675;-62
2023/04/12 10:10:59;;;;;;;;;0.50;0.50;;;;;;;;4997383;28;45226;-63
2023/04/12 10:13:25;;;;;;;;;0.00;0.00;;;;;;;;4990517;28;45506;-63
2023/04/12 10:15:51;;;;;;;;;0.00;0.00;;;;;;;;4997916;28;45522;-64
2023/04/12 10:18:17;;;;;;;;;1.50;0.00;;;;;;;;5001383;28;45375;-61
2023/04/12 10:20:42;;;;;;;;;0.25;0.25;;;;;;;;5006813;28;47015;-60
2023/04/12 10:23:08;;;;;;;;;0.50;0.00;;;;;;;;5006198;28;45340;-61
2023/04/12 10:25:33;;;;;;;;;1.00;0.00;;;;;;;;4989716;28;45349;-60
2023/04/12 10:28:12;;;;;;;;;1.75;0.00;;;;;;;;4989639;28;45332;-61
2023/04/12 10:30:37;;;;;;;;;1.50;1.00;;;;;;;;5008603;28;46869;-61
2023/04/12 10:33:06;;;;;;;;;0.50;0.50;;;;;;;;4984820;28;46576;-60
2023/04/12 10:35:46;;;;;;;;;0.00;0.00;;;;;;;;5000674;28;45591;-60
2023/04/12 10:38:12;;;;;;;;;0.25;0.25;;;;;;;;5003584;28;46130;-61
2023/04/12 10:40:37;;;;;;;;;1.00;0.00;;;;;;;;4990982;28;45706;-59
2023/04/12 10:43:18;;;;;;;;;0.00;0.00;;;;;;;;4999811;28;45230;-60
2023/04/12 10:45:44;;;;;;;;;3.00;1.25;;;;;;;;4974847;28;45730;-58
2023/04/12 10:48:28;;;;;;;;;1.00;1.00;;;;;;;;5006124;28;45463;-60
2023/04/12 10:51:23;;;;;;;;;1.75;1.00;;;;;;;;4980052;28;46884;-61
2023/04/12 10:53:49;;;;;;;;;1.25;0.25;;;;;;;;4996457;28;45426;-60
2023/04/12 10:56:33;;;;;;;;;1.00;1.00;;;;;;;;5001560;28;45523;-60
2023/04/12 10:58:58;;;;;;;;;1.25;1.25;;;;;;;;4977814;28;45572;-60
2023/04/12 11:01:23;;;;;;;;;0.00;0.00;;;;;;;;4992670;28;45551;-61
2023/04/12 11:04:07;;;;;;;;;2.00;1.00;;;;;;;;4992226;28;45415;-61
2023/04/12 11:06:46;;;;;;;;;0.00;0.00;;;;;;;;4988911;28;45991;-61
2023/04/12 11:09:18;;;;;;;;;3.50;0.50;;;;;;;;4986120;28;45611;-61
2023/04/12 11:11:44;;;;;;;;;1.25;1.25;;;;;;;;4991387;28;45368;-61
2023/04/12 11:14:09;;;;;;;;;2.50;1.00;;;;;;;;4992232;28;45472;-61
2023/04/12 11:16:55;;;;;;;;;1.00;1.00;;;;;;;;4998896;28;45600;-61
2023/04/12 11:19:21;;;;;;;;;0.00;0.00;;;;;;;;4976805;28;45517;-61
2023/04/12 11:21:47;;;;;;;;;1.00;0.25;;;;;;;;4984140;28;47770;-61
2023/04/12 11:24:12;;;;;;;;;0.75;0.50;;;;;;;;5002743;28;45444;-61
2023/04/12 11:26:38;;;;;;;;;1.25;1.00;;;;;;;;4989849;28;45328;-61
2023/04/12 11:29:06;;;;;;;;;1.00;1.00;;;;;;;;4969414;28;45989;-61
2023/04/12 11:31:32;;;;;;;;;0.50;0.00;;;;;;;;4997587;28;45391;-61
2023/04/12 11:33:58;;;;;;;;;0.50;0.00;;;;;;;;4986720;28;45502;-62
2023/04/12 11:36:25;;;;;;;;;0.50;0.50;;;;;;;;4975267;28;45452;-61
2023/04/12 11:38:50;;;;;;;;;0.00;0.00;;;;;;;;4981213;28;45501;-62
2023/04/12 11:41:17;;;;;;;;;2.00;0.00;;;;;;;;4989833;28;46622;-62
2023/04/12 11:43:43;;;;;;;;;2.00;0.00;;;;;;;;4995718;28;45380;-61
2023/04/12 11:46:09;;;;;;;;;0.00;0.00;;;;;;;;4975274;28;45458;-61
2023/04/12 11:48:37;;;;;;;;;2.25;0.50;;;;;;;;4984060;28;45348;-61
2023/04/12 11:51:17;;;;;;;;;1.00;0.00;;;;;;;;4983670;28;45683;-61
2023/04/12 11:53:43;;;;;;;;;1.75;0.25;;;;;;;;4992217;28;45858;-61
2023/04/12 11:56:09;;;;;;;;;1.00;1.00;;;;;;;;4989103;28;45680;-61
2023/04/12 11:58:34;;;;;;;;;0.00;0.00;;;;;;;;4988009;28;45758;-62
2023/04/12 12:00:59;;;;;;;;;0.00;0.00;;;;;;;;4993393;28;45621;-62
2023/04/12 12:03:25;;;;;;;;;0.00;0.00;;;;;;;;4990655;28;45380;-62
2023/04/12 12:05:50;;;;;;;;;0.00;0.00;;;;;;;;4998715;28;45262;-62
2023/04/12 12:08:16;;;;;;;;;0.25;0.25;;;;;;;;4991668;28;45511;-62
2023/04/12 12:10:41;;;;;;;;;0.00;0.00;;;;;;;;4977918;28;46981;-62
2023/04/12 12:13:11;;;;;;;;;1.25;0.00;;;;;;;;4994886;28;45534;-62
2023/04/12 12:15:36;;;;;;;;;0.00;0.00;;;;;;;;4989457;28;45422;-62
2023/04/12 12:18:01;;;;;;;;;0.00;0.00;;;;;;;;4995762;28;45485;-62
2023/04/12 12:20:26;;;;;;;;;0.50;0.00;;;;;;;;4989208;28;46118;-62
2023/04/12 12:22:52;;;;;;;;;0.00;0.00;;;;;;;;4985599;28;45703;-62
2023/04/12 12:25:18;;;;;;;;;0.00;0.00;;;;;;;;4992543;28;45572;-62
2023/04/12 12:27:47;;;;;;;;;0.25;0.25;;;;;;;;4979741;28;45298;-62
2023/04/12 12:30:15;;;;;;;;;1.75;0.00;;;;;;;;4992674;28;45554;-62
2023/04/12 12:32:41;;;;;;;;;0.50;0.00;;;;;;;;4978526;28;45618;-64
2023/04/12 12:35:10;;;;;;;;;0.00;0.00;;;;;;;;4977105;28;45507;-62
2023/04/12 12:37:36;;;;;;;;;0.00;0.00;;;;;;;;4989433;28;45428;-62
2023/04/12 12:40:06;;;;;;;;;1.00;0.00;;;;;;;;4979385;28;46276;-62
2023/04/12 12:42:32;;;;;;;;;0.00;0.00;;;;;;;;4989354;28;45941;-62
2023/04/12 12:44:57;;;;;;;;;0.00;0.00;;;;;;;;4993159;28;45537;-61
2023/04/12 12:47:22;;;;;;;;;0.00;0.00;;;;;;;;4995061;28;45550;-61
2023/04/12 12:49:47;;;;;;;;;4.00;0.00;;;;;;;;4993843;28;46185;-61
2023/04/12 12:52:13;;;;;;;;;0.00;0.00;;;;;;;;4987875;28;45360;-61
2023/04/12 12:54:38;;;;;;;;;1.25;0.00;;;;;;;;4993162;28;45450;-61
2023/04/12 12:57:03;;;;;;;;;1.00;0.00;;;;;;;;4990024;28;45321;-61
2023/04/12 12:59:28;;;;;;;;;1.00;0.00;;;;;;;;4994497;28;45348;-61
2023/04/12 13:01:53;;;;;;;;;0.00;0.00;;;;;;;;4994615;28;45801;-61
2023/04/12 13:04:19;;;;;;;;;0.33;0.00;;;;;;;;4996428;28;45616;-61
2023/04/12 13:06:44;;;;;;;;;0.00;0.00;;;;;;;;4990445;28;45499;-62
2023/04/12 13:09:09;;;;;;;;;0.00;0.00;;;;;;;;4993239;28;45416;-62
2023/04/12 13:11:34;;;;;;;;;1.00;1.00;;;;;;;;4990603;28;45507;-62
2023/04/12 13:14:00;;;;;;;;;0.00;0.00;;;;;;;;4995133;28;45620;-64
2023/04/12 13:16:25;;;;;;;;;0.00;0.00;;;;;;;;4989366;28;45690;-63
2023/04/12 13:18:50;;;;;;;;;1.33;0.00;;;;;;;;4991473;28;45523;-63
2023/04/12 13:21:16;;;;;;;;;0.00;0.00;;;;;;;;4968485;28;45295;-63
2023/04/12 13:23:41;;;;;;;;;0.00;0.00;;;;;;;;4975419;28;45414;-63
2023/04/12 13:26:06;;;;;;;;;0.00;0.00;;;;;;;;4990916;28;45876;-63
2023/04/12 13:28:31;;;;;;;;;0.00;0.00;;;;;;;;4988083;28;45745;-63
2023/04/12 13:30:56;;;;;;;;;0.00;0.00;;;;;;;;4991670;28;45508;-64
2023/04/12 13:33:22;;;;;;;;;0.67;0.00;;;;;;;;4986682;28;45729;-63
2023/04/12 13:35:47;;;;;;;;;0.00;0.00;;;;;;;;4984860;28;45913;-64
2023/04/12 13:38:12;;;;;;;;;0.00;0.00;;;;;;;;4996149;28;46755;-64
2023/04/12 13:40:37;;;;;;;;;1.00;0.00;;;;;;;;4989851;28;45665;-64
2023/04/12 13:43:03;;;;;;;;;0.00;0.00;;;;;;;;4984281;28;45626;-64
2023/04/12 13:45:28;;;;;;;;;0.00;0.00;;;;;;;;4991271;28;45564;-64
2023/04/12 13:47:53;;;;;;;;;0.00;0.00;;;;;;;;4995696;28;46613;-63
2023/04/12 13:50:19;;;;;;;;;0.00;0.00;;;;;;;;4996042;28;45593;-63
2023/04/12 13:52:44;;;;;;;;;0.00;0.00;;;;;;;;4991053;28;45605;-64
2023/04/12 13:55:09;;;;;;;;;0.00;0.00;;;;;;;;4967981;28;45851;-64
2023/04/12 13:57:34;;;;;;;;;0.00;0.00;;;;;;;;4989096;28;45510;-63
2023/04/12 14:00:00;;;;;;;;;0.00;0.00;;;;;;;;4989493;28;45491;-63
2023/04/12 14:02:25;;;;;;;;;0.00;0.00;;;;;;;;4991736;28;45395;-63
2023/04/12 14:04:51;;;;;;;;;1.00;0.00;;;;;;;;4989444;28;45528;-63
2023/04/12 14:07:17;;;;;;;;;0.00;0.00;;;;;;;;4976092;28;47111;-63
2023/04/12 14:09:42;;;;;;;;;0.00;0.00;;;;;;;;4995018;28;45388;-63
2023/04/12 14:12:07;;;;;;;;;2.00;0.00;;;;;;;;4996921;28;45860;-63
2023/04/12 14:14:32;;;;;;;;;2.00;0.00;;;;;;;;4988756;28;45747;-64
2023/04/12 14:16:57;;;;;;;;;0.00;0.00;;;;;;;;4987579;28;45450;-63
2023/04/12 14:19:23;;;;;;;;;0.00;0.00;;;;;;;;4999206;28;45405;-64
2023/04/12 14:21:48;;;;;;;;;0.00;0.00;;;;;;;;5001674;28;45605;-63
2023/04/12 14:24:14;;;;;;;;;0.00;0.00;;;;;;;;5001650;28;45665;-64
2023/04/12 14:26:40;;;;;;;;;0.00;0.00;;;;;;;;5004402;28;47056;-63
2023/04/12 14:29:05;;;;;;;;;0.00;0.00;;;;;;;;4980618;28;45405;-63
2023/04/12 14:31:31;;;;;;;;;1.00;0.00;;;;;;;;5003356;28;45338;-63
2023/04/12 14:33:56;;;;;;;;;0.00;0.00;;;;;;;;5003318;28;45404;-63
2023/04/12 14:36:21;;;;;;;;;0.00;0.00;;;;;;;;5005022;28;45439;-63
2023/04/12 14:38:46;;;;;;;;;0.00;0.00;;;;;;;;4997129;28;45341;-63
2023/04/12 14:41:12;;;;;;;;;0.00;0.00;;;;;;;;5005080;28;45471;-63
2023/04/12 14:43:38;;;;;;;;;0.00;0.00;;;;;;;;5005645;28;45382;-64
2023/04/12 14:46:03;;;;;;;;;0.00;0.00;;;;;;;;4991520;28;46234;-64
2023/04/12 14:48:28;;;;;;;;;0.00;0.00;;;;;;;;4996403;28;45404;-63
2023/04/12 14:50:54;;;;;;;;;1.00;0.00;;;;;;;;5001187;28;45585;-63
2023/04/12 14:53:19;;;;;;;;;0.00;0.00;;;;;;;;5000514;28;45447;-64
2023/04/12 14:55:48;;;;;;;;;1.00;0.00;;;;;;;;5000500;28;45382;-65
2023/04/12 14:58:13;;;;;;;;;0.67;0.00;;;;;;;;4998051;28;45347;-64
2023/04/12 15:00:38;;;;;;;;;1.33;0.00;;;;;;;;4973989;28;45493;-63
2023/04/12 15:03:05;;;;;;;;;0.00;0.00;;;;;;;;4993197;28;45285;-64
2023/04/12 15:05:30;;;;;;;;;0.00;0.00;;;;;;;;4992054;28;46267;-63
2023/04/12 15:07:56;;;;;;;;;1.00;0.00;;;;;;;;4998951;28;45239;-63
2023/04/12 15:10:21;;;;;;;;;0.00;0.00;;;;;;;;4984833;28;45278;-63
2023/04/12 15:12:46;;;;;;;;;0.00;0.00;;;;;;;;4998217;28;45628;-63
2023/04/12 15:15:12;;;;;;;;;0.00;0.00;;;;;;;;4998913;28;46518;-64
2023/04/12 15:17:37;;;;;;;;;0.00;0.00;;;;;;;;4982290;28;45369;-64
2023/04/12 15:20:09;;;;;;;;;0.00;0.00;;;;;;;;4998749;28;45325;-64
2023/04/12 15:22:35;;;;;;;;;1.00;0.00;;;;;;;;5000418;28;45259;-64
2023/04/12 15:25:01;;;;;;;;;0.00;0.00;;;;;;;;5000274;28;45316;-65
2023/04/12 15:27:26;;;;;;;;;1.00;0.00;;;;;;;;4998946;28;45292;-65
2023/04/12 15:29:52;;;;;;;;;0.33;0.00;;;;;;;;5000156;28;45284;-64
2023/04/12 15:32:17;;;;;;;;;0.00;0.00;;;;;;;;4999601;28;45270;-65
2023/04/12 15:34:42;;;;;;;;;0.00;0.00;;;;;;;;4982455;28;47398;-64
2023/04/12 15:37:08;;;;;;;;;0.00;0.00;;;;;;;;4999475;28;45230;-64
2023/04/12 15:39:34;;;;;;;;;1.00;0.00;;;;;;;;4999140;28;45504;-64
2023/04/12 15:41:59;;;;;;;;;0.00;0.00;;;;;;;;4977680;28;45536;-63
2023/04/12 15:44:30;;;;;;;;;0.00;0.00;;;;;;;;4995366;28;45440;-63
2023/04/12 15:46:55;;;;;;;;;0.00;0.00;;;;;;;;4989595;28;45524;-63
2023/04/12 15:49:21;;;;;;;;;0.00;0.00;;;;;;;;4995865;28;45288;-63
2023/04/12 15:51:46;;;;;;;;;0.00;0.00;;;;;;;;4990001;28;45454;-62
2023/04/12 15:54:11;;;;;;;;;0.33;0.00;;;;;;;;4999312;28;46594;-63
2023/04/12 15:56:37;;;;;;;;;0.00;0.00;;;;;;;;4999777;28;45334;-63
2023/04/12 15:59:02;;;;;;;;;0.00;0.00;;;;;;;;4978687;28;45431;-64
2023/04/12 16:01:28;;;;;;;;;0.00;0.00;;;;;;;;4995493;28;45524;-64
2023/04/12 16:03:54;;;;;;;;;0.00;0.00;;;;;;;;4996962;28;45316;-63
2023/04/12 16:06:19;;;;;;;;;0.00;0.00;;;;;;;;4988377;28;45404;-62
2023/04/12 16:08:48;;;;;;;;;0.00;0.00;;;;;;;;4982100;28;45557;-63
2023/04/12 16:11:18;;;;;;;;;1.00;0.00;;;;;;;;5000471;28;45449;-63
2023/04/12 16:13:45;;;;;;;;;0.00;0.00;;;;;;;;5012898;28;47275;-63
2023/04/12 16:16:12;;;;;;;;;0.00;0.00;;;;;;;;4984436;28;45368;-63
2023/04/12 16:18:38;;;;;;;;;0.00;0.00;;;;;;;;5004091;28;45411;-63
2023/04/12 16:21:04;;;;;;;;;0.33;0.33;;;;;;;;4991939;28;45652;-62
2023/04/12 16:23:29;;;;;;;;;0.00;0.00;;;;;;;;5009682;28;45817;-62
2023/04/12 16:25:55;;;;;;;;;0.00;0.00;;;;;;;;4997504;28;45404;-60
2023/04/12 16:28:21;;;;;;;;;0.00;0.00;;;;;;;;4993003;28;45278;-61
2023/04/12 16:30:48;;;;;;;;;0.00;0.00;;;;;;;;4991368;28;45535;-61
2023/04/12 16:33:13;;;;;;;;;0.00;0.00;;;;;;;;4997308;28;45762;-61
2023/04/12 16:35:39;;;;;;;;;0.00;0.00;;;;;;;;5000713;28;45396;-61
2023/04/12 16:38:04;;;;;;;;;0.00;0.00;;;;;;;;4998301;28;45447;-61
2023/04/12 16:40:29;;;;;;;;;2.00;0.00;;;;;;;;5000679;28;45338;-61
2023/04/12 16:42:56;;;;;;;;;0.00;0.00;;;;;;;;4990539;28;45385;-61
2023/04/12 16:45:21;;;;;;;;;0.00;0.00;;;;;;;;4995046;28;46083;-61
2023/04/12 16:47:46;;;;;;;;;2.33;0.00;;;;;;;;4992324;28;45416;-62
2023/04/12 16:50:12;;;;;;;;;0.33;0.00;;;;;;;;4971565;28;45733;-62
2023/04/12 16:52:38;;;;;;;;;1.00;0.00;;;;;;;;4979831;28;47430;-62
2023/04/12 16:55:04;;;;;;;;;0.33;0.00;;;;;;;;4998441;28;45424;-62
2023/04/12 16:57:29;;;;;;;;;0.00;0.00;;;;;;;;4993766;28;45788;-62
2023/04/12 16:59:55;;;;;;;;;0.67;0.67;;;;;;;;4997696;28;45475;-62
2023/04/12 17:02:20;;;;;;;;;1.00;1.00;;;;;;;;4993240;28;47085;-61
2023/04/12 17:04:47;;;;;;;;;0.00;0.00;;;;;;;;4999034;28;45595;-62
2023/04/12 17:07:12;;;;;;;;;2.00;0.00;;;;;;;;4995952;28;45471;-62
2023/04/12 17:09:37;;;;;;;;;1.33;0.00;;;;;;;;5001716;28;45427;-63
2023/04/12 17:12:03;;;;;;;;;0.00;0.00;;;;;;;;4995644;28;46188;-62
2023/04/12 17:14:28;;;;;;;;;1.00;1.00;;;;;;;;4998679;28;45205;-61
2023/04/12 17:16:53;;;;;;;;;1.00;1.00;;;;;;;;4979963;28;45436;-62
2023/04/12 17:19:21;;;;;;;;;1.00;1.00;;;;;;;;4998859;28;45351;-62
2023/04/12 17:21:50;;;;;;;;;2.33;1.00;;;;;;;;4952558;28;46161;-63
2023/04/12 17:24:16;;;;;;;;;1.00;1.00;;;;;;;;4995056;28;45798;-63
2023/04/12 17:26:42;;;;;;;;;1.00;1.00;;;;;;;;4993414;28;45594;-63
2023/04/12 17:29:07;;;;;;;;;0.00;0.00;;;;;;;;4969633;28;46141;-67
2023/04/12 17:31:32;;;;;;;;;1.00;0.00;;;;;;;;4995150;28;45408;-59
2023/04/12 17:34:02;;;;;;;;;0.00;0.00;;;;;;;;4983192;28;45313;-59
2023/04/12 17:36:30;;;;;;;;;0.00;0.00;;;;;;;;5006628;28;45560;-59
2023/04/12 17:38:56;;;;;;;;;0.00;0.00;;;;;;;;4988126;28;45499;-59
2023/04/12 17:41:21;;;;;;;;;1.00;1.00;;;;;;;;4988513;28;45799;-59
2023/04/12 17:43:46;;;;;;;;;3.00;0.00;;;;;;;;4993923;28;45736;-59
2023/04/12 17:46:11;;;;;;;;;2.00;1.00;;;;;;;;4995144;28;45741;-59
2023/04/12 17:48:37;;;;;;;;;0.00;0.00;;;;;;;;4991986;28;45235;-64
2023/04/12 17:51:03;;;;;;;;;0.33;0.33;;;;;;;;4989826;28;45706;-58
2023/04/12 17:53:28;;;;;;;;;0.67;0.67;;;;;;;;4984626;28;45626;-61
2023/04/12 17:55:53;;;;;;;;;1.00;1.00;;;;;;;;4993843;28;45749;-60
2023/04/12 17:58:18;;;;;;;;;1.00;0.00;;;;;;;;4998522;28;45778;-61
2023/04/12 18:00:43;;;;;;;;;2.33;1.00;;;;;;;;4999865;28;46378;-61
2023/04/12 18:03:11;;;;;;;;;0.67;0.67;;;;;;;;4996282;28;45425;-61
2023/04/12 18:05:37;;;;;;;;;3.00;1.00;;;;;;;;4999524;28;45387;-60
2023/04/12 18:08:02;;;;;;;;;0.00;0.00;;;;;;;;4996701;28;45320;-61
2023/04/12 18:10:29;;;;;;;;;2.00;0.00;;;;;;;;4993131;28;46902;-60
2023/04/12 18:12:54;;;;;;;;;0.00;0.00;;;;;;;;4981046;28;45735;-60
2023/04/12 18:15:19;;;;;;;;;0.00;0.00;;;;;;;;4999556;28;45321;-59
2023/04/12 18:17:44;;;;;;;;;0.67;0.00;;;;;;;;5000832;28;45360;-60
2023/04/12 18:20:10;;;;;;;;;2.00;2.00;;;;;;;;4996415;28;46440;-59
2023/04/12 18:22:36;;;;;;;;;2.67;2.00;;;;;;;;4998904;28;45407;-59
2023/04/12 18:25:02;;;;;;;;;1.00;1.00;;;;;;;;4999522;28;45674;-59
2023/04/12 18:27:27;;;;;;;;;0.00;0.00;;;;;;;;4972168;28;45865;-64
2023/04/12 18:29:52;;;;;;;;;0.00;0.00;;;;;;;;4983917;28;46645;-61
2023/04/12 18:32:18;;;;;;;;;0.67;0.67;;;;;;;;4991154;28;45828;-61
2023/04/12 18:34:43;;;;;;;;;3.33;0.00;;;;;;;;4987489;28;45562;-69
2023/04/12 18:37:08;;;;;;;;;0.00;0.00;;;;;;;;4989035;28;45448;-64
2023/04/12 18:39:34;;;;;;;;;2.00;2.00;;;;;;;;4985770;28;45545;-62
2023/04/12 18:42:00;;;;;;;;;2.00;2.00;;;;;;;;4995559;28;45495;-68
2023/04/12 18:44:26;;;;;;;;;1.00;1.00;;;;;;;;4992385;28;45559;-68
2023/04/12 18:46:51;;;;;;;;;1.00;1.00;;;;;;;;4990591;28;45628;-55
2023/04/12 18:49:17;;;;;;;;;3.00;2.00;;;;;;;;4991430;28;45562;-54
2023/04/12 18:51:42;;;;;;;;;4.00;2.00;;;;;;;;4986271;28;47424;-55
2023/04/12 18:54:11;;;;;;;;;2.00;1.00;;;;;;;;4985801;28;45403;-57
2023/04/12 18:56:37;;;;;;;;;3.00;1.00;;;;;;;;4991697;28;45462;-53
2023/04/12 18:59:03;;;;;;;;;3.00;2.00;;;;;;;;4991638;28;46103;-55
2023/04/12 19:01:28;;;;;;;;;6.00;1.00;;;;;;;;4991089;28;45717;-57
2023/04/12 19:03:53;;;;;;;;;2.00;2.00;;;;;;;;4986784;28;45692;-56
2023/04/12 19:06:19;;;;;;;;;1.00;1.00;;;;;;;;4985638;28;45598;-56
2023/04/12 19:08:44;;;;;;;;;1.67;1.67;;;;;;;;4991192;28;47040;-56
2023/04/12 19:11:10;;;;;;;;;1.00;1.00;;;;;;;;4989487;28;45498;-54
2023/04/12 19:13:35;;;;;;;;;1.00;1.00;;;;;;;;4971783;28;45614;-54
2023/04/12 19:16:01;;;;;;;;;1.00;1.00;;;;;;;;4975559;28;45551;-65
2023/04/12 19:18:29;;;;;;;;;3.00;2.00;;;;;;;;4990859;28;46713;-58
2023/04/12 19:20:55;;;;;;;;;1.00;1.00;;;;;;;;4989555;28;45242;-64
2023/04/12 19:23:20;;;;;;;;;2.00;1.00;;;;;;;;4985857;28;45564;-64
2023/04/12 19:25:46;;;;;;;;;1.33;0.00;;;;;;;;4990110;28;45606;-63
2023/04/12 19:28:11;;;;;;;;;2.67;1.00;;;;;;;;4989771;28;45561;-65
2023/04/12 19:30:36;;;;;;;;;1.00;1.00;;;;;;;;4991074;28;45686;-65
2023/04/12 19:33:01;;;;;;;;;0.00;0.00;;;;;;;;4989178;28;45815;-64
2023/04/12 19:35:31;;;;;;;;;0.33;0.00;;;;;;;;4996291;28;45532;-66
2023/04/12 19:37:57;;;;;;;;;1.00;0.00;;;;;;;;4990188;28;46778;-60